Dunkirk, United Kingdom
Current Conditions -  °F | °C
As of 11:20 AM on Wednesday 26 Nov 2014 (Local Time) from EGMC Reporting Station
Haze Haze  
Wind Chill: 48°   Ceiling: 400
Heat Index: 48°   Visibility: 2.1mi
Dew Point: 46°   Wind: 3mph
Humidity: 93%   Direction: 100°E
Pressure: 29.85"   Gusts: NA
Location:  51.29°N, 0.98°E
Report Text: EGMC 261120Z 10003KT 3500 BR OVC004 09/08 Q1011
Loading
Personal Weather Stations






























Interactive Weather Map New forecast layout! Learn more

10-Day Weather Forecast

Advertisements
Track Severe Weather on mobile